Time;durP1;ratioP1;P1;durP2;ratioP2;P2;SDS_P1;SDS_P2;PMS_P1;PMS_P2;Temp;Humidity;BMP_temperature;BMP_pressure;BME280_temperature;BME280_humidity;BME280_pressure;Samples;Min_cycle;Max_cycle;Signal;HPM_P1;HPM_P2
2022/07/08 00:01:28;;;;;;;;;13.80;11.40;;;;;;;;4999822;28;8875;-75
2022/07/08 00:03:55;;;;;;;;;13.00;11.80;;;;;;;;5012456;28;8789;-77
2022/07/08 00:06:22;;;;;;;;;13.00;12.00;;;;;;;;5019559;28;8765;-75
2022/07/08 00:08:48;;;;;;;;;15.20;13.80;;;;;;;;5037214;28;8849;-75
2022/07/08 00:11:15;;;;;;;;;13.20;11.40;;;;;;;;5019738;28;8891;-75
2022/07/08 00:13:42;;;;;;;;;17.40;14.40;;;;;;;;5019545;28;8753;-75
2022/07/08 00:16:08;;;;;;;;;15.40;14.60;;;;;;;;5020113;28;8799;-75
2022/07/08 00:18:35;;;;;;;;;16.80;15.00;;;;;;;;5046352;28;8798;-75
2022/07/08 00:21:02;;;;;;;;;20.80;16.40;;;;;;;;5038996;28;8779;-75
2022/07/08 00:23:28;;;;;;;;;18.60;18.60;;;;;;;;5056705;28;8767;-75
2022/07/08 00:25:55;;;;;;;;;21.20;15.00;;;;;;;;5022677;28;8774;-75
2022/07/08 00:28:22;;;;;;;;;11.80;11.00;;;;;;;;5039706;28;8775;-83
2022/07/08 00:30:48;;;;;;;;;20.20;18.40;;;;;;;;5056655;28;8759;-88
2022/07/08 00:33:15;;;;;;;;;20.40;18.80;;;;;;;;5056341;28;8799;-75
2022/07/08 00:35:42;;;;;;;;;20.80;20.00;;;;;;;;5056307;28;8795;-83
2022/07/08 00:38:08;;;;;;;;;18.00;17.60;;;;;;;;5056550;28;8770;-75
2022/07/08 00:40:35;;;;;;;;;22.20;18.00;;;;;;;;5022160;28;8809;-75
2022/07/08 00:43:02;;;;;;;;;19.20;19.20;;;;;;;;5039583;28;8747;-75
2022/07/08 00:45:28;;;;;;;;;23.00;22.00;;;;;;;;5055878;28;8876;-75
2022/07/08 00:47:55;;;;;;;;;21.20;21.20;;;;;;;;5038665;28;8825;-83
2022/07/08 00:50:22;;;;;;;;;22.80;18.40;;;;;;;;5038501;28;8952;-80
2022/07/08 00:52:48;;;;;;;;;25.60;22.00;;;;;;;;5038630;28;9398;-75
2022/07/08 00:55:15;;;;;;;;;22.80;19.60;;;;;;;;5039386;28;8817;-75
2022/07/08 00:57:42;;;;;;;;;15.40;12.20;;;;;;;;5038205;28;8814;-85
2022/07/08 01:00:08;;;;;;;;;17.60;16.00;;;;;;;;5038243;28;8759;-75
2022/07/08 01:02:35;;;;;;;;;20.80;17.40;;;;;;;;5038114;28;8908;-75
2022/07/08 01:05:02;;;;;;;;;13.60;12.80;;;;;;;;5056146;28;8836;-75
2022/07/08 01:07:28;;;;;;;;;16.60;16.40;;;;;;;;5038189;28;8893;-83
2022/07/08 01:09:55;;;;;;;;;21.20;17.80;;;;;;;;5056715;28;8771;-75
2022/07/08 01:12:22;;;;;;;;;20.20;16.40;;;;;;;;5037669;28;8795;-75
2022/07/08 01:14:48;;;;;;;;;21.40;18.40;;;;;;;;5037965;28;8775;-80
2022/07/08 01:17:15;;;;;;;;;16.00;14.00;;;;;;;;5055636;28;8879;-75
2022/07/08 01:19:42;;;;;;;;;18.40;16.00;;;;;;;;5017925;28;8789;-80
2022/07/08 01:22:08;;;;;;;;;15.40;14.00;;;;;;;;5036587;28;8748;-75
2022/07/08 01:24:36;;;;;;;;;20.40;17.00;;;;;;;;5018073;28;8877;-88
2022/07/08 01:27:03;;;;;;;;;16.40;15.80;;;;;;;;5035691;28;8776;-80
2022/07/08 01:29:29;;;;;;;;;17.40;15.00;;;;;;;;5035332;28;8855;-80
2022/07/08 01:32:00;;;;;;;;;15.40;13.80;;;;;;;;5035721;28;8878;-74
2022/07/08 01:34:27;;;;;;;;;18.00;13.20;;;;;;;;5030907;28;8777;-82
2022/07/08 01:36:53;;;;;;;;;16.40;15.20;;;;;;;;5035995;28;8781;-80
2022/07/08 01:39:20;;;;;;;;;14.60;13.40;;;;;;;;5035297;28;8791;-83
2022/07/08 01:41:47;;;;;;;;;10.20;9.40;;;;;;;;5035515;28;8799;-80
2022/07/08 01:44:13;;;;;;;;;15.60;14.20;;;;;;;;5035529;28;8765;-81
2022/07/08 01:46:40;;;;;;;;;13.60;12.40;;;;;;;;5017563;28;8765;-75
2022/07/08 01:49:07;;;;;;;;;12.00;11.40;;;;;;;;5049693;28;8744;-75
2022/07/08 01:51:34;;;;;;;;;14.20;13.80;;;;;;;;5037334;28;8806;-75
2022/07/08 01:54:00;;;;;;;;;11.60;11.40;;;;;;;;5020776;28;9445;-76
2022/07/08 01:56:27;;;;;;;;;14.80;13.20;;;;;;;;5037206;28;8801;-75
2022/07/08 01:58:54;;;;;;;;;13.00;10.00;;;;;;;;5055307;28;8774;-82
2022/07/08 02:01:20;;;;;;;;;14.80;12.60;;;;;;;;5037848;28;8913;-75
2022/07/08 02:03:47;;;;;;;;;14.20;12.00;;;;;;;;5037086;28;8767;-75
2022/07/08 02:06:13;;;;;;;;;11.80;9.00;;;;;;;;5054697;28;8805;-75
2022/07/08 02:08:40;;;;;;;;;9.00;8.20;;;;;;;;5036731;28;8778;-75
2022/07/08 02:13:52;;;;;;;;;12.40;11.40;;;;;;;;5039572;28;8751;-75
2022/07/08 02:16:18;;;;;;;;;10.80;10.00;;;;;;;;5055309;28;8739;-75
2022/07/08 02:18:45;;;;;;;;;13.40;11.80;;;;;;;;5017064;28;8910;-81
2022/07/08 02:21:12;;;;;;;;;11.00;9.00;;;;;;;;5017296;28;9064;-74
2022/07/08 02:23:39;;;;;;;;;13.60;13.00;;;;;;;;5000553;28;8803;-74
2022/07/08 02:26:05;;;;;;;;;9.80;9.80;;;;;;;;5016775;28;8817;-75
2022/07/08 02:28:32;;;;;;;;;10.60;10.60;;;;;;;;5016955;28;8741;-75
2022/07/08 02:30:58;;;;;;;;;7.80;7.00;;;;;;;;5035412;28;8765;-74
2022/07/08 02:33:25;;;;;;;;;9.60;8.20;;;;;;;;5042664;28;8895;-86
2022/07/08 02:35:52;;;;;;;;;13.80;10.40;;;;;;;;5054150;28;8791;-74
2022/07/08 02:38:20;;;;;;;;;13.60;9.20;;;;;;;;5036484;28;8855;-75
2022/07/08 02:40:47;;;;;;;;;10.20;10.20;;;;;;;;5020618;28;8746;-75
2022/07/08 02:43:13;;;;;;;;;9.40;9.40;;;;;;;;5037590;28;8879;-75
2022/07/08 02:45:40;;;;;;;;;10.20;7.80;;;;;;;;5053867;28;8852;-74
2022/07/08 02:48:06;;;;;;;;;11.20;8.20;;;;;;;;5036506;28;8778;-74
2022/07/08 02:50:33;;;;;;;;;4.60;4.60;;;;;;;;5036426;28;8762;-75
2022/07/08 02:53:00;;;;;;;;;6.40;6.00;;;;;;;;5036767;28;8775;-75
2022/07/08 02:55:26;;;;;;;;;7.60;6.00;;;;;;;;5036177;28;8771;-75
2022/07/08 02:57:53;;;;;;;;;5.00;4.60;;;;;;;;5054497;28;8771;-74
2022/07/08 03:00:20;;;;;;;;;4.60;4.60;;;;;;;;5054018;28;8802;-79
2022/07/08 03:02:47;;;;;;;;;2.20;2.20;;;;;;;;5036736;28;8783;-74
2022/07/08 03:05:13;;;;;;;;;4.20;3.00;;;;;;;;5054182;28;8774;-75
2022/07/08 03:07:40;;;;;;;;;1.00;1.00;;;;;;;;5054058;28;8774;-75
2022/07/08 03:10:07;;;;;;;;;3.00;3.00;;;;;;;;5054873;28;8743;-75
2022/07/08 03:12:34;;;;;;;;;2.00;2.00;;;;;;;;5053499;28;8801;-80
2022/07/08 03:15:00;;;;;;;;;3.60;3.60;;;;;;;;5053963;28;8769;-74
2022/07/08 03:17:27;;;;;;;;;4.00;4.00;;;;;;;;5036047;28;8782;-75
2022/07/08 03:19:53;;;;;;;;;5.60;3.80;;;;;;;;5054191;28;8899;-74
2022/07/08 03:22:20;;;;;;;;;3.80;3.80;;;;;;;;5036848;28;8794;-80
2022/07/08 03:24:47;;;;;;;;;3.00;3.00;;;;;;;;5019828;28;8766;-75
2022/07/08 03:27:13;;;;;;;;;2.20;2.20;;;;;;;;5036403;28;8773;-78
2022/07/08 03:29:40;;;;;;;;;76.80;62.80;;;;;;;;5036174;28;8789;-75
2022/07/08 03:32:07;;;;;;;;;18.75;15.25;;;;;;;;5053943;28;8778;-75
2022/07/08 03:34:34;;;;;;;;;2.00;2.00;;;;;;;;5035923;28;8848;-75
2022/07/08 03:37:01;;;;;;;;;4.60;4.60;;;;;;;;5035058;28;9468;-75
2022/07/08 03:39:27;;;;;;;;;4.40;4.40;;;;;;;;5037486;28;8768;-75
2022/07/08 03:41:54;;;;;;;;;4.20;3.60;;;;;;;;5037827;28;8810;-75
2022/07/08 03:44:21;;;;;;;;;5.40;3.00;;;;;;;;5037553;28;8895;-82
2022/07/08 03:46:47;;;;;;;;;74.50;53.00;;;;;;;;5036463;28;8783;-75
2022/07/08 03:49:14;;;;;;;;;52.25;43.00;;;;;;;;5037645;28;8733;-75
2022/07/08 03:51:40;;;;;;;;;5.20;4.60;;;;;;;;5036107;28;8824;-75
2022/07/08 03:54:07;;;;;;;;;3.20;3.20;;;;;;;;5037577;28;8838;-79
2022/07/08 03:56:34;;;;;;;;;3.20;3.00;;;;;;;;5036058;28;8801;-74
2022/07/08 03:59:00;;;;;;;;;2.40;2.40;;;;;;;;5036068;28;8811;-75
2022/07/08 04:01:27;;;;;;;;;5.00;3.00;;;;;;;;5037148;28;8780;-75
2022/07/08 04:03:53;;;;;;;;;2.00;2.00;;;;;;;;5016808;28;8802;-83
2022/07/08 04:06:20;;;;;;;;;3.80;3.00;;;;;;;;5015826;28;8801;-75
2022/07/08 04:08:47;;;;;;;;;30.75;28.50;;;;;;;;5016197;28;9437;-75
2022/07/08 04:11:13;;;;;;;;;20.20;13.20;;;;;;;;5016319;28;8783;-74
2022/07/08 04:13:40;;;;;;;;;2.80;2.80;;;;;;;;5016155;28;9450;-75
2022/07/08 04:16:12;;;;;;;;;8.00;4.20;;;;;;;;5016908;28;8759;-74
2022/07/08 04:18:41;;;;;;;;;4.60;4.40;;;;;;;;5025792;28;9487;-74
2022/07/08 04:21:08;;;;;;;;;80.00;67.80;;;;;;;;5036836;28;8776;-79
2022/07/08 04:23:35;;;;;;;;;5.20;5.20;;;;;;;;5035560;28;8824;-74
2022/07/08 04:26:02;;;;;;;;;6.20;4.60;;;;;;;;5035599;28;8760;-75
2022/07/08 04:28:28;;;;;;;;;4.20;4.20;;;;;;;;5036811;28;8790;-75
2022/07/08 04:30:56;;;;;;;;;1.80;1.80;;;;;;;;5035926;28;8812;-75
2022/07/08 04:33:23;;;;;;;;;2.00;1.00;;;;;;;;5015709;28;8856;-75
2022/07/08 04:35:50;;;;;;;;;1.20;1.20;;;;;;;;5015572;28;8798;-74
2022/07/08 04:38:16;;;;;;;;;3.20;3.20;;;;;;;;4999472;28;9027;-75
2022/07/08 04:40:43;;;;;;;;;124.20;94.60;;;;;;;;5015580;28;8805;-75
2022/07/08 04:43:11;;;;;;;;;35.00;28.75;;;;;;;;5016310;28;9455;-75
2022/07/08 04:45:37;;;;;;;;;41.25;29.00;;;;;;;;5015132;28;8782;-74
2022/07/08 04:48:04;;;;;;;;;6.80;6.00;;;;;;;;5020014;28;9396;-81
2022/07/08 04:50:31;;;;;;;;;35.50;26.25;;;;;;;;5034769;28;8815;-75
2022/07/08 04:52:58;;;;;;;;;8.20;8.00;;;;;;;;5035169;28;8780;-75
2022/07/08 04:55:31;;;;;;;;;2.00;2.00;;;;;;;;5035220;28;8791;-80
2022/07/08 04:58:01;;;;;;;;;6.00;3.60;;;;;;;;5035820;28;9000;-75
2022/07/08 05:00:29;;;;;;;;;10.00;8.00;;;;;;;;5034754;28;8790;-75
2022/07/08 05:02:56;;;;;;;;;1.40;1.40;;;;;;;;5034986;28;8820;-79
2022/07/08 05:05:23;;;;;;;;;3.60;3.00;;;;;;;;5034658;28;8782;-75
2022/07/08 05:07:49;;;;;;;;;1.00;1.00;;;;;;;;5018656;28;8833;-75
2022/07/08 05:10:17;;;;;;;;;2.40;2.40;;;;;;;;5035334;28;8792;-74
2022/07/08 05:12:44;;;;;;;;;1.80;1.80;;;;;;;;5034845;28;8772;-75
2022/07/08 05:15:11;;;;;;;;;13.00;11.00;;;;;;;;5034630;28;8834;-80
2022/07/08 05:17:38;;;;;;;;;56.25;45.50;;;;;;;;5034168;28;8788;-75
2022/07/08 05:20:05;;;;;;;;;284.25;240.50;;;;;;;;5034419;28;8882;-75
2022/07/08 05:22:32;;;;;;;;;426.00;353.50;;;;;;;;5035382;28;11669;-75
2022/07/08 05:24:59;;;;;;;;;159.75;138.50;;;;;;;;5034931;28;8795;-80
2022/07/08 05:27:25;;;;;;;;;9.00;6.40;;;;;;;;5035402;28;8826;-74
2022/07/08 05:29:52;;;;;;;;;3.40;3.40;;;;;;;;5034451;28;8768;-79
2022/07/08 05:32:18;;;;;;;;;4.00;3.00;;;;;;;;5034339;28;8800;-75
2022/07/08 05:34:45;;;;;;;;;2.80;2.80;;;;;;;;5034084;28;8820;-74
2022/07/08 05:37:12;;;;;;;;;4.60;3.60;;;;;;;;5034889;28;8808;-75
2022/07/08 05:39:41;;;;;;;;;3.40;3.40;;;;;;;;5033985;28;8792;-75
2022/07/08 05:42:08;;;;;;;;;3.20;3.00;;;;;;;;5034260;28;8752;-75
2022/07/08 05:44:36;;;;;;;;;2.00;2.00;;;;;;;;5035033;28;9490;-75
2022/07/08 05:47:03;;;;;;;;;5.40;3.40;;;;;;;;5034170;28;8776;-75
2022/07/08 05:49:30;;;;;;;;;3.00;3.00;;;;;;;;5034923;28;8745;-75
2022/07/08 05:51:56;;;;;;;;;3.40;3.40;;;;;;;;5035972;28;8808;-75
2022/07/08 05:54:23;;;;;;;;;5.80;3.60;;;;;;;;5033427;28;8830;-75
2022/07/08 05:56:49;;;;;;;;;5.00;5.00;;;;;;;;5033733;28;8804;-75
2022/07/08 05:59:16;;;;;;;;;10.20;7.00;;;;;;;;5017163;28;8796;-80
2022/07/08 06:01:43;;;;;;;;;4.80;4.00;;;;;;;;5034693;28;8767;-80
2022/07/08 06:04:09;;;;;;;;;7.00;7.00;;;;;;;;5034352;28;8848;-74
2022/07/08 06:06:36;;;;;;;;;9.20;8.20;;;;;;;;5033150;28;8800;-75
2022/07/08 06:09:03;;;;;;;;;9.40;7.80;;;;;;;;5017337;28;8753;-75
2022/07/08 06:11:29;;;;;;;;;10.00;8.00;;;;;;;;5017256;28;8795;-75
2022/07/08 06:13:56;;;;;;;;;12.20;10.00;;;;;;;;5034979;28;8923;-75
2022/07/08 06:16:22;;;;;;;;;10.80;9.80;;;;;;;;5017752;28;8804;-75
2022/07/08 06:18:49;;;;;;;;;10.40;8.00;;;;;;;;5034485;28;8898;-75
2022/07/08 06:21:16;;;;;;;;;9.80;8.20;;;;;;;;5033503;28;8780;-75
2022/07/08 06:23:43;;;;;;;;;8.60;7.40;;;;;;;;5033454;28;9517;-74
2022/07/08 06:26:11;;;;;;;;;11.20;7.60;;;;;;;;5033496;28;8752;-81
2022/07/08 06:28:37;;;;;;;;;6.00;5.80;;;;;;;;5033363;28;8791;-75
2022/07/08 06:31:04;;;;;;;;;3.20;2.40;;;;;;;;5035264;28;8756;-76
2022/07/08 06:33:31;;;;;;;;;4.40;4.40;;;;;;;;5032670;28;8771;-75
2022/07/08 06:35:57;;;;;;;;;5.00;4.60;;;;;;;;5033169;28;8776;-75
2022/07/08 06:38:24;;;;;;;;;5.00;2.60;;;;;;;;5034377;28;8799;-80
2022/07/08 06:40:50;;;;;;;;;3.00;3.00;;;;;;;;5017206;28;8814;-75
2022/07/08 06:43:17;;;;;;;;;2.20;2.20;;;;;;;;5035080;28;8761;-75
2022/07/08 06:45:46;;;;;;;;;2.20;2.00;;;;;;;;5034179;28;8764;-75
2022/07/08 06:48:13;;;;;;;;;2.00;1.40;;;;;;;;5034331;28;8808;-74
2022/07/08 06:50:40;;;;;;;;;2.00;2.00;;;;;;;;5033065;28;8774;-74
2022/07/08 06:53:06;;;;;;;;;1.00;1.00;;;;;;;;5033145;28;8795;-75
2022/07/08 06:55:33;;;;;;;;;2.20;1.00;;;;;;;;5016828;28;8760;-75
2022/07/08 06:58:00;;;;;;;;;1.00;1.00;;;;;;;;5033924;28;8808;-75
2022/07/08 07:00:27;;;;;;;;;2.00;2.00;;;;;;;;5032978;28;9524;-75
2022/07/08 07:02:54;;;;;;;;;3.20;2.20;;;;;;;;5033012;28;8874;-75
2022/07/08 07:05:21;;;;;;;;;2.60;2.20;;;;;;;;5032886;28;8772;-78
2022/07/08 07:07:47;;;;;;;;;5.20;3.60;;;;;;;;5033291;28;8752;-74
2022/07/08 07:10:14;;;;;;;;;3.00;3.00;;;;;;;;5035046;28;8765;-75
2022/07/08 07:12:41;;;;;;;;;3.00;3.00;;;;;;;;5037180;28;8878;-75
2022/07/08 07:15:07;;;;;;;;;2.20;2.20;;;;;;;;5037130;28;8945;-74
2022/07/08 07:17:34;;;;;;;;;2.60;2.60;;;;;;;;5036514;28;8776;-74
2022/07/08 07:20:04;;;;;;;;;3.40;3.00;;;;;;;;5037006;28;8772;-75
2022/07/08 07:22:30;;;;;;;;;4.60;2.60;;;;;;;;5036531;28;8763;-75
2022/07/08 07:24:57;;;;;;;;;1.20;1.20;;;;;;;;5038785;28;8780;-75
2022/07/08 07:27:24;;;;;;;;;5.20;4.00;;;;;;;;5036532;28;8945;-75
2022/07/08 07:29:50;;;;;;;;;5.40;4.80;;;;;;;;5020433;28;8756;-75
2022/07/08 07:32:17;;;;;;;;;5.40;4.60;;;;;;;;5037453;28;8807;-79
2022/07/08 07:34:43;;;;;;;;;2.80;2.80;;;;;;;;5037596;28;8772;-74
2022/07/08 07:37:10;;;;;;;;;2.40;2.40;;;;;;;;5053804;28;8798;-75
2022/07/08 07:39:37;;;;;;;;;3.80;2.00;;;;;;;;5039908;28;8779;-74
2022/07/08 07:42:03;;;;;;;;;3.80;3.00;;;;;;;;5039944;28;8786;-75
2022/07/08 07:44:30;;;;;;;;;0.80;0.80;;;;;;;;5039599;28;8754;-75
2022/07/08 07:46:57;;;;;;;;;3.80;2.00;;;;;;;;5040089;28;8798;-75
2022/07/08 07:49:23;;;;;;;;;2.00;2.00;;;;;;;;5057617;28;8767;-75
2022/07/08 07:51:50;;;;;;;;;2.60;2.60;;;;;;;;5058009;28;8814;-75
2022/07/08 07:54:17;;;;;;;;;2.80;1.20;;;;;;;;5039868;28;8809;-75
2022/07/08 07:56:43;;;;;;;;;2.60;2.60;;;;;;;;5039422;28;8928;-75
2022/07/08 07:59:10;;;;;;;;;0.00;0.00;;;;;;;;5039957;28;8763;-79
2022/07/08 08:01:36;;;;;;;;;2.20;2.20;;;;;;;;5022951;28;8790;-80
2022/07/08 08:04:03;;;;;;;;;2.00;2.00;;;;;;;;5040204;28;8782;-74
2022/07/08 08:06:30;;;;;;;;;3.00;3.00;;;;;;;;5056955;28;8767;-75
2022/07/08 08:08:57;;;;;;;;;3.40;3.00;;;;;;;;5057278;28;8804;-81
2022/07/08 08:11:24;;;;;;;;;2.80;2.80;;;;;;;;5039160;28;8932;-80
2022/07/08 08:13:51;;;;;;;;;1.00;1.00;;;;;;;;5056890;28;8775;-78
2022/07/08 08:16:17;;;;;;;;;3.00;3.00;;;;;;;;5023490;28;8783;-75
2022/07/08 08:18:44;;;;;;;;;2.60;2.00;;;;;;;;5057077;28;8793;-75
2022/07/08 08:21:10;;;;;;;;;4.80;3.80;;;;;;;;5022830;28;8767;-81
2022/07/08 08:23:37;;;;;;;;;4.80;2.00;;;;;;;;5055768;28;8787;-75
2022/07/08 08:26:04;;;;;;;;;3.40;1.80;;;;;;;;5039514;28;8806;-78
2022/07/08 08:28:30;;;;;;;;;4.60;3.20;;;;;;;;5039128;28;8766;-75
2022/07/08 08:30:57;;;;;;;;;2.00;2.00;;;;;;;;5057401;28;8810;-75
2022/07/08 08:33:24;;;;;;;;;3.00;3.00;;;;;;;;5038652;28;8783;-81
2022/07/08 08:35:50;;;;;;;;;0.00;0.00;;;;;;;;5019155;28;8796;-75
2022/07/08 08:38:17;;;;;;;;;2.00;2.00;;;;;;;;5036759;28;8861;-80
2022/07/08 08:40:43;;;;;;;;;2.60;2.60;;;;;;;;5035439;28;8753;-74
2022/07/08 08:43:10;;;;;;;;;2.40;2.00;;;;;;;;5037434;28;8748;-75
2022/07/08 08:45:37;;;;;;;;;1.20;1.00;;;;;;;;5035024;28;9613;-74
2022/07/08 08:48:06;;;;;;;;;1.00;1.00;;;;;;;;5035319;28;8800;-74
2022/07/08 08:50:54;;;;;;;;;4.80;2.00;;;;;;;;5035152;28;8761;-74
2022/07/08 08:53:24;;;;;;;;;2.00;2.00;;;;;;;;5035257;28;8796;-80
2022/07/08 08:55:51;;;;;;;;;1.80;1.80;;;;;;;;5036588;28;8783;-74
2022/07/08 08:58:18;;;;;;;;;2.60;2.60;;;;;;;;5019257;28;9518;-75
2022/07/08 09:00:45;;;;;;;;;1.20;1.20;;;;;;;;5036355;28;8810;-75
2022/07/08 09:03:11;;;;;;;;;2.00;2.00;;;;;;;;5035005;28;8773;-74
2022/07/08 09:05:38;;;;;;;;;5.00;5.00;;;;;;;;5036030;28;8923;-74
2022/07/08 09:08:05;;;;;;;;;3.20;3.20;;;;;;;;5036256;28;8771;-79
2022/07/08 09:10:40;;;;;;;;;4.00;3.00;;;;;;;;5026266;28;8795;-74
2022/07/08 09:13:10;;;;;;;;;6.00;4.00;;;;;;;;5035802;28;8919;-74
2022/07/08 09:15:36;;;;;;;;;3.00;2.00;;;;;;;;5034576;28;8870;-75
2022/07/08 09:18:04;;;;;;;;;2.00;0.20;;;;;;;;5035493;28;8781;-75
2022/07/08 09:20:43;;;;;;;;;1.00;1.00;;;;;;;;5034648;28;8783;-75
2022/07/08 09:23:13;;;;;;;;;2.60;1.40;;;;;;;;5035992;28;8752;-75
2022/07/08 09:25:40;;;;;;;;;0.80;0.80;;;;;;;;5034674;28;8768;-80
2022/07/08 09:28:06;;;;;;;;;1.00;0.60;;;;;;;;5036542;28;8814;-74
2022/07/08 09:30:33;;;;;;;;;2.00;1.00;;;;;;;;5034335;28;8784;-75
2022/07/08 09:33:00;;;;;;;;;3.00;1.40;;;;;;;;5035709;28;8780;-75
2022/07/08 09:35:37;;;;;;;;;2.00;2.00;;;;;;;;5035079;28;8764;-74
2022/07/08 09:38:04;;;;;;;;;3.60;3.60;;;;;;;;5038110;28;8877;-81
2022/07/08 09:40:33;;;;;;;;;2.40;2.40;;;;;;;;5037199;28;8822;-78
2022/07/08 09:43:03;;;;;;;;;3.20;3.20;;;;;;;;5038488;28;9426;-77
2022/07/08 09:45:30;;;;;;;;;4.00;4.00;;;;;;;;5020922;28;8766;-76
2022/07/08 09:48:04;;;;;;;;;2.40;2.40;;;;;;;;5037731;28;8774;-81
2022/07/08 09:50:34;;;;;;;;;1.20;1.00;;;;;;;;5037581;28;8817;-74
2022/07/08 09:53:01;;;;;;;;;2.40;2.40;;;;;;;;5037596;28;8790;-75
2022/07/08 09:55:33;;;;;;;;;3.20;2.00;;;;;;;;5037602;28;8761;-75
2022/07/08 09:58:00;;;;;;;;;2.40;1.00;;;;;;;;5038617;28;9439;-74
2022/07/08 10:00:28;;;;;;;;;2.80;2.80;;;;;;;;5037285;28;8763;-75
2022/07/08 10:02:55;;;;;;;;;3.20;2.80;;;;;;;;5017726;28;8784;-74
2022/07/08 10:05:21;;;;;;;;;4.40;3.40;;;;;;;;5001009;28;8838;-75
2022/07/08 10:07:48;;;;;;;;;1.80;1.00;;;;;;;;5017819;28;8757;-79
2022/07/08 10:10:15;;;;;;;;;2.00;2.00;;;;;;;;5001913;28;8765;-74
2022/07/08 10:12:41;;;;;;;;;1.00;1.00;;;;;;;;5000901;28;8773;-75
2022/07/08 10:15:08;;;;;;;;;4.20;1.80;;;;;;;;5017522;28;8875;-75
2022/07/08 10:17:36;;;;;;;;;4.00;2.00;;;;;;;;5001797;28;8945;-74
2022/07/08 10:20:03;;;;;;;;;0.80;0.80;;;;;;;;5037108;28;8763;-74
2022/07/08 10:22:29;;;;;;;;;1.00;1.00;;;;;;;;5054735;28;8798;-75
2022/07/08 10:24:56;;;;;;;;;0.60;0.60;;;;;;;;5037931;28;8799;-75
2022/07/08 10:27:26;;;;;;;;;0.00;0.00;;;;;;;;5054520;28;8805;-75
2022/07/08 10:29:52;;;;;;;;;3.00;1.00;;;;;;;;5036973;28;8844;-75
2022/07/08 10:32:23;;;;;;;;;1.00;0.40;;;;;;;;5036586;28;8798;-75
2022/07/08 10:35:07;;;;;;;;;3.00;3.00;;;;;;;;5054320;28;8849;-75
2022/07/08 10:37:54;;;;;;;;;3.40;1.00;;;;;;;;5054239;28;8783;-78
2022/07/08 10:40:47;;;;;;;;;3.60;2.40;;;;;;;;5023954;28;8755;-75
2022/07/08 10:43:20;;;;;;;;;3.00;3.00;;;;;;;;5055306;28;8747;-75
2022/07/08 10:46:06;;;;;;;;;3.00;2.20;;;;;;;;5053842;28;8801;-75
2022/07/08 10:48:52;;;;;;;;;3.00;3.00;;;;;;;;5036356;28;8774;-74
2022/07/08 10:51:28;;;;;;;;;3.00;3.00;;;;;;;;5054219;28;8887;-80
2022/07/08 10:53:55;;;;;;;;;3.00;2.40;;;;;;;;5054371;28;8767;-75
2022/07/08 10:56:40;;;;;;;;;5.20;5.20;;;;;;;;5036501;28;8798;-74
2022/07/08 10:59:19;;;;;;;;;3.60;3.60;;;;;;;;5054411;28;9209;-74
2022/07/08 11:01:55;;;;;;;;;1.40;0.60;;;;;;;;5054523;28;8762;-75
2022/07/08 11:04:22;;;;;;;;;1.00;1.00;;;;;;;;5016834;28;8757;-74
2022/07/08 11:06:48;;;;;;;;;1.00;1.00;;;;;;;;5034458;28;8779;-74
2022/07/08 11:09:18;;;;;;;;;1.60;1.00;;;;;;;;5000347;28;8804;-74
2022/07/08 11:11:45;;;;;;;;;1.20;1.20;;;;;;;;5000387;28;8760;-74
2022/07/08 11:14:15;;;;;;;;;4.80;2.20;;;;;;;;5017002;28;8761;-75
2022/07/08 11:16:42;;;;;;;;;2.00;1.00;;;;;;;;5016747;28;8749;-75
2022/07/08 11:19:08;;;;;;;;;1.00;1.00;;;;;;;;5011067;28;8749;-74
2022/07/08 11:21:35;;;;;;;;;1.80;1.00;;;;;;;;5016410;28;8903;-75
2022/07/08 11:24:02;;;;;;;;;1.80;1.80;;;;;;;;5034303;28;8768;-75
2022/07/08 11:26:28;;;;;;;;;1.80;1.80;;;;;;;;5016523;28;8840;-75
2022/07/08 11:28:55;;;;;;;;;1.20;1.20;;;;;;;;5033063;28;8792;-74
2022/07/08 11:31:28;;;;;;;;;3.60;1.80;;;;;;;;5017007;28;8784;-75
2022/07/08 11:33:55;;;;;;;;;3.00;1.00;;;;;;;;5028768;28;8759;-75
2022/07/08 11:36:21;;;;;;;;;2.80;1.00;;;;;;;;5032335;28;9577;-74
2022/07/08 11:38:49;;;;;;;;;1.80;1.80;;;;;;;;5032805;28;8814;-75
2022/07/08 11:41:17;;;;;;;;;5.40;3.00;;;;;;;;5033028;28;8816;-74
2022/07/08 11:43:44;;;;;;;;;1.00;1.00;;;;;;;;5034084;28;8772;-74
2022/07/08 11:46:20;;;;;;;;;2.80;1.00;;;;;;;;5017121;28;8760;-75
2022/07/08 11:48:47;;;;;;;;;2.00;2.00;;;;;;;;5032478;28;8780;-74
2022/07/08 11:51:14;;;;;;;;;3.60;2.40;;;;;;;;5032736;28;9432;-75
2022/07/08 11:53:41;;;;;;;;;2.60;2.60;;;;;;;;5016155;28;8784;-74
2022/07/08 11:56:08;;;;;;;;;2.00;2.00;;;;;;;;5034061;28;8772;-75
2022/07/08 11:58:35;;;;;;;;;2.00;2.00;;;;;;;;5018794;28;8796;-75
2022/07/08 12:01:01;;;;;;;;;1.80;1.80;;;;;;;;5038143;28;8796;-75
2022/07/08 12:03:28;;;;;;;;;0.80;0.80;;;;;;;;5036940;28;8788;-74
2022/07/08 12:05:56;;;;;;;;;2.60;1.20;;;;;;;;5036175;28;8783;-74
2022/07/08 12:08:22;;;;;;;;;1.00;1.00;;;;;;;;5037163;28;8780;-75
2022/07/08 12:10:49;;;;;;;;;2.40;1.60;;;;;;;;5019871;28;8825;-74
2022/07/08 12:13:16;;;;;;;;;2.80;1.80;;;;;;;;5036835;28;8882;-78
2022/07/08 12:15:44;;;;;;;;;2.40;1.00;;;;;;;;5035825;28;8822;-75
2022/07/08 12:18:10;;;;;;;;;4.80;2.00;;;;;;;;5035689;28;8954;-75
2022/07/08 12:20:38;;;;;;;;;2.00;1.60;;;;;;;;5035741;28;8858;-75
2022/07/08 12:23:04;;;;;;;;;2.00;2.00;;;;;;;;5036085;28;8761;-75
2022/07/08 12:25:50;;;;;;;;;1.80;1.80;;;;;;;;5035674;28;8780;-74
2022/07/08 12:28:24;;;;;;;;;3.20;3.00;;;;;;;;5020058;28;8776;-80
2022/07/08 12:30:50;;;;;;;;;2.40;2.40;;;;;;;;5036330;28;8773;-74
2022/07/08 12:33:25;;;;;;;;;3.60;3.60;;;;;;;;5035471;28;8792;-75
2022/07/08 12:35:52;;;;;;;;;3.60;3.00;;;;;;;;5040967;28;9442;-74
2022/07/08 12:38:18;;;;;;;;;1.40;1.40;;;;;;;;5056147;28;8809;-75
2022/07/08 12:40:45;;;;;;;;;4.00;2.00;;;;;;;;5022377;28;8903;-74
2022/07/08 12:43:13;;;;;;;;;3.00;2.00;;;;;;;;5057173;28;8869;-79
2022/07/08 12:45:40;;;;;;;;;3.80;2.20;;;;;;;;5038909;28;8779;-75
2022/07/08 12:48:06;;;;;;;;;4.80;3.00;;;;;;;;5038681;28;8809;-74
2022/07/08 12:50:33;;;;;;;;;3.80;2.00;;;;;;;;5038270;28;8865;-74
2022/07/08 12:53:00;;;;;;;;;3.80;2.00;;;;;;;;5038940;28;8771;-75
2022/07/08 12:55:27;;;;;;;;;2.20;1.40;;;;;;;;5021979;28;8836;-75
2022/07/08 12:57:54;;;;;;;;;2.80;2.20;;;;;;;;5039426;28;8905;-80
2022/07/08 13:00:21;;;;;;;;;4.20;2.40;;;;;;;;5038123;28;8770;-75
2022/07/08 13:02:47;;;;;;;;;5.80;2.40;;;;;;;;5038620;28;8892;-74
2022/07/08 13:05:14;;;;;;;;;2.60;2.00;;;;;;;;5038403;28;8763;-75
2022/07/08 13:07:41;;;;;;;;;2.80;2.80;;;;;;;;5056260;28;8848;-75
2022/07/08 13:10:08;;;;;;;;;3.40;2.00;;;;;;;;5038723;28;8801;-78
2022/07/08 13:12:35;;;;;;;;;5.40;3.00;;;;;;;;5038204;28;8786;-76
2022/07/08 13:15:02;;;;;;;;;2.60;2.60;;;;;;;;5055951;28;8762;-76
2022/07/08 13:17:28;;;;;;;;;2.60;2.20;;;;;;;;5038186;28;8787;-75
2022/07/08 13:19:55;;;;;;;;;7.80;2.40;;;;;;;;5021724;28;8763;-74
2022/07/08 13:22:21;;;;;;;;;3.40;2.20;;;;;;;;5038812;28;8828;-75
2022/07/08 13:24:48;;;;;;;;;4.80;2.80;;;;;;;;5055765;28;8842;-75
2022/07/08 13:27:15;;;;;;;;;3.20;2.00;;;;;;;;5037655;28;8766;-74
2022/07/08 13:29:41;;;;;;;;;2.00;2.00;;;;;;;;5038052;28;8856;-74
2022/07/08 13:32:08;;;;;;;;;5.00;1.80;;;;;;;;5037891;28;8763;-74
2022/07/08 13:34:35;;;;;;;;;3.60;1.60;;;;;;;;5017872;28;8781;-74
2022/07/08 13:37:01;;;;;;;;;3.00;2.00;;;;;;;;5015328;28;8976;-79
2022/07/08 13:39:28;;;;;;;;;3.00;2.00;;;;;;;;4998146;28;8763;-75
2022/07/08 13:41:54;;;;;;;;;2.20;2.00;;;;;;;;5015877;28;8767;-74
2022/07/08 13:44:21;;;;;;;;;6.20;2.40;;;;;;;;5015460;28;8775;-74
2022/07/08 13:46:48;;;;;;;;;3.00;2.00;;;;;;;;5015967;28;8758;-74
2022/07/08 13:49:14;;;;;;;;;2.60;2.60;;;;;;;;5009848;28;8767;-74
2022/07/08 13:51:41;;;;;;;;;1.80;1.40;;;;;;;;5015463;28;8827;-74
2022/07/08 13:54:07;;;;;;;;;6.00;2.60;;;;;;;;5014302;28;9418;-74
2022/07/08 13:56:34;;;;;;;;;4.40;2.60;;;;;;;;5014027;28;8776;-75
2022/07/08 13:59:01;;;;;;;;;2.40;2.40;;;;;;;;5014498;28;8766;-74
2022/07/08 14:01:27;;;;;;;;;3.60;2.80;;;;;;;;5014235;28;8786;-75
2022/07/08 14:03:54;;;;;;;;;0.80;0.80;;;;;;;;5027674;28;8749;-79
2022/07/08 14:06:21;;;;;;;;;2.80;1.00;;;;;;;;5033619;28;8780;-74
2022/07/08 14:08:48;;;;;;;;;2.00;1.00;;;;;;;;5033898;28;8768;-74
2022/07/08 14:11:15;;;;;;;;;2.60;2.00;;;;;;;;5034002;28;8796;-74
2022/07/08 14:13:41;;;;;;;;;2.20;1.00;;;;;;;;5034986;28;8922;-74
2022/07/08 14:16:09;;;;;;;;;2.00;2.00;;;;;;;;5035711;28;8867;-75
2022/07/08 14:18:36;;;;;;;;;1.20;1.00;;;;;;;;5033165;28;8825;-75
2022/07/08 14:21:02;;;;;;;;;1.80;1.80;;;;;;;;5033833;28;8785;-74
2022/07/08 14:23:29;;;;;;;;;4.60;3.00;;;;;;;;5033398;28;8768;-75
2022/07/08 14:25:55;;;;;;;;;3.20;3.00;;;;;;;;5033808;28;8756;-75
2022/07/08 14:28:24;;;;;;;;;5.80;4.20;;;;;;;;5034042;28;8764;-75
2022/07/08 14:30:50;;;;;;;;;4.00;3.60;;;;;;;;5017184;28;9107;-79
2022/07/08 14:33:17;;;;;;;;;4.00;4.00;;;;;;;;5033392;28;8804;-75
2022/07/08 14:35:43;;;;;;;;;2.80;2.80;;;;;;;;5037422;28;8817;-75
2022/07/08 14:38:10;;;;;;;;;5.00;4.20;;;;;;;;5054230;28;8775;-74
2022/07/08 14:40:37;;;;;;;;;3.00;3.00;;;;;;;;5036544;28;8789;-75
2022/07/08 14:43:05;;;;;;;;;3.00;3.00;;;;;;;;5037716;28;8785;-74
2022/07/08 14:45:33;;;;;;;;;2.60;2.60;;;;;;;;5020009;28;8844;-74
2022/07/08 14:48:00;;;;;;;;;3.40;2.00;;;;;;;;5036750;28;8807;-74
2022/07/08 14:50:26;;;;;;;;;1.80;1.20;;;;;;;;5054312;28;8783;-74
2022/07/08 14:52:53;;;;;;;;;2.00;2.00;;;;;;;;5036669;28;8782;-74
2022/07/08 14:55:20;;;;;;;;;1.00;1.00;;;;;;;;5036968;28;8774;-75